sensor_id;sensor_type;location;lat;lon;timestamp;pressure;altitude;pressure_sealevel;temperature
70435;BMP280;57876;47.792;12.960;2022-08-14T00:01:45;96615.16;;;20.40
70435;BMP280;57876;47.792;12.960;2022-08-14T00:04:09;96610.97;;;20.39
70435;BMP280;57876;47.792;12.960;2022-08-14T00:06:34;96615.75;;;20.39
70435;BMP280;57876;47.792;12.960;2022-08-14T00:08:58;96603.34;;;20.38
70435;BMP280;57876;47.792;12.960;2022-08-14T00:11:22;96606.78;;;20.38
70435;BMP280;57876;47.792;12.960;2022-08-14T00:13:47;96593.03;;;20.38
70435;BMP280;57876;47.792;12.960;2022-08-14T00:16:11;96598.53;;;20.38
70435;BMP280;57876;47.792;12.960;2022-08-14T00:18:37;96600.63;;;20.38
70435;BMP280;57876;47.792;12.960;2022-08-14T00:21:01;96597.88;;;20.38
70435;BMP280;57876;47.792;12.960;2022-08-14T00:23:26;96600.63;;;20.38
70435;BMP280;57876;47.792;12.960;2022-08-14T00:25:52;96597.88;;;20.38
70435;BMP280;57876;47.792;12.960;2022-08-14T00:28:17;96595.13;;;20.38
70435;BMP280;57876;47.792;12.960;2022-08-14T00:30:42;96594.38;;;20.37
70435;BMP280;57876;47.792;12.960;2022-08-14T00:33:07;96594.38;;;20.37
70435;BMP280;57876;47.792;12.960;2022-08-14T00:35:32;96590.91;;;20.37
70435;BMP280;57876;47.792;12.960;2022-08-14T00:37:56;96597.13;;;20.37
70435;BMP280;57876;47.792;12.960;2022-08-14T00:40:21;96595.69;;;20.36
70435;BMP280;57876;47.792;12.960;2022-08-14T00:42:46;96597.88;;;20.38
70435;BMP280;57876;47.792;12.960;2022-08-14T00:45:13;96610.88;;;20.37
70435;BMP280;57876;47.792;12.960;2022-08-14T00:47:38;96599.88;;;20.37
70435;BMP280;57876;47.792;12.960;2022-08-14T00:50:05;96601.19;;;20.36
70435;BMP280;57876;47.792;12.960;2022-08-14T00:52:30;96590.19;;;20.36
70435;BMP280;57876;47.792;12.960;2022-08-14T00:54:55;96591.63;;;20.37
70435;BMP280;57876;47.792;12.960;2022-08-14T00:57:21;96586.13;;;20.37
70435;BMP280;57876;47.792;12.960;2022-08-14T00:59:45;96574.41;;;20.37
70435;BMP280;57876;47.792;12.960;2022-08-14T01:02:11;96568.91;;;20.37
70435;BMP280;57876;47.792;12.960;2022-08-14T01:04:36;96573.69;;;20.36
70435;BMP280;57876;47.792;12.960;2022-08-14T01:07:01;96570.81;;;20.34
70435;BMP280;57876;47.792;12.960;2022-08-14T01:09:27;96571.53;;;20.35
70435;BMP280;57876;47.792;12.960;2022-08-14T01:11:53;96565.91;;;20.33
70435;BMP280;57876;47.792;12.960;2022-08-14T01:14:18;96575.56;;;20.34
70435;BMP280;57876;47.792;12.960;2022-08-14T01:16:44;96563.91;;;20.33
70435;BMP280;57876;47.792;12.960;2022-08-14T01:19:08;96569.41;;;20.33
70435;BMP280;57876;47.792;12.960;2022-08-14T01:21:53;96571.41;;;20.33
70435;BMP280;57876;47.792;12.960;2022-08-14T01:24:18;96565.22;;;20.32
70435;BMP280;57876;47.792;12.960;2022-08-14T01:26:44;96567.97;;;20.32
70435;BMP280;57876;47.792;12.960;2022-08-14T01:29:09;96563.03;;;20.31
70435;BMP280;57876;47.792;12.960;2022-08-14T01:31:36;96568.53;;;20.31
70435;BMP280;57876;47.792;12.960;2022-08-14T01:34:10;96563.03;;;20.31
70435;BMP280;57876;47.792;12.960;2022-08-14T01:36:35;96565.22;;;20.32
70435;BMP280;57876;47.792;12.960;2022-08-14T01:39:04;96566.53;;;20.31
70435;BMP280;57876;47.792;12.960;2022-08-14T01:41:29;96561.03;;;20.31
70435;BMP280;57876;47.792;12.960;2022-08-14T01:43:54;96559.59;;;20.30
70435;BMP280;57876;47.792;12.960;2022-08-14T01:46:24;96559.59;;;20.30
70435;BMP280;57876;47.792;12.960;2022-08-14T01:48:49;96559.59;;;20.30
70435;BMP280;57876;47.792;12.960;2022-08-14T01:51:17;96554.09;;;20.30
70435;BMP280;57876;47.792;12.960;2022-08-14T01:53:46;96552.66;;;20.29
70435;BMP280;57876;47.792;12.960;2022-08-14T01:56:16;96547.84;;;20.30
70435;BMP280;57876;47.792;12.960;2022-08-14T01:58:44;96549.19;;;20.29
70435;BMP280;57876;47.792;12.960;2022-08-14T02:01:16;96547.16;;;20.29
70435;BMP280;57876;47.792;12.960;2022-08-14T02:03:41;96552.50;;;20.27
70435;BMP280;57876;47.792;12.960;2022-08-14T02:06:07;96538.06;;;20.27
70435;BMP280;57876;47.792;12.960;2022-08-14T02:08:31;96551.81;;;20.27
70435;BMP280;57876;47.792;12.960;2022-08-14T02:10:57;96536.63;;;20.26
70435;BMP280;57876;47.792;12.960;2022-08-14T02:13:41;96538.78;;;20.27
70435;BMP280;57876;47.792;12.960;2022-08-14T02:16:07;96534.59;;;20.26
70435;BMP280;57876;47.792;12.960;2022-08-14T02:18:32;96547.00;;;20.27
70435;BMP280;57876;47.792;12.960;2022-08-14T02:20:56;96529.81;;;20.27
70435;BMP280;57876;47.792;12.960;2022-08-14T02:23:22;96535.31;;;20.27
70435;BMP280;57876;47.792;12.960;2022-08-14T02:25:46;96537.34;;;20.26
70435;BMP280;57876;47.792;12.960;2022-08-14T02:28:11;96533.16;;;20.25
70435;BMP280;57876;47.792;12.960;2022-08-14T02:30:35;96533.16;;;20.25
70435;BMP280;57876;47.792;12.960;2022-08-14T02:33:00;96533.16;;;20.25
70435;BMP280;57876;47.792;12.960;2022-08-14T02:35:24;96526.09;;;20.22
70435;BMP280;57876;47.792;12.960;2022-08-14T02:37:50;96530.19;;;20.21
70435;BMP280;57876;47.792;12.960;2022-08-14T02:40:16;96523.34;;;20.22
70435;BMP280;57876;47.792;12.960;2022-08-14T02:42:41;96518.47;;;20.21
70435;BMP280;57876;47.792;12.960;2022-08-14T02:45:06;96519.19;;;20.21
70435;BMP280;57876;47.792;12.960;2022-08-14T02:47:31;96526.00;;;20.20
70435;BMP280;57876;47.792;12.960;2022-08-14T02:49:56;96513.69;;;20.21
70435;BMP280;57876;47.792;12.960;2022-08-14T02:52:21;96504.00;;;20.20
70435;BMP280;57876;47.792;12.960;2022-08-14T02:54:45;96512.25;;;20.20
70435;BMP280;57876;47.792;12.960;2022-08-14T02:57:11;96508.22;;;20.21
70435;BMP280;57876;47.792;12.960;2022-08-14T02:59:37;96508.78;;;20.20
70435;BMP280;57876;47.792;12.960;2022-08-14T03:02:03;96512.25;;;20.20
70435;BMP280;57876;47.792;12.960;2022-08-14T03:04:28;96500.53;;;20.20
70435;BMP280;57876;47.792;12.960;2022-08-14T03:06:53;96497.09;;;20.19
70435;BMP280;57876;47.792;12.960;2022-08-14T03:09:18;96501.97;;;20.21
70435;BMP280;57876;47.792;12.960;2022-08-14T03:11:42;96501.28;;;20.20
70435;BMP280;57876;47.792;12.960;2022-08-14T03:14:07;96501.13;;;20.18
70435;BMP280;57876;47.792;12.960;2022-08-14T03:16:34;96493.59;;;20.19
70435;BMP280;57876;47.792;12.960;2022-08-14T03:18:59;96496.34;;;20.19
70435;BMP280;57876;47.792;12.960;2022-08-14T03:21:23;96488.75;;;20.17
70435;BMP280;57876;47.792;12.960;2022-08-14T03:23:51;96486.00;;;20.17
70435;BMP280;57876;47.792;12.960;2022-08-14T03:26:21;96490.03;;;20.16
70435;BMP280;57876;47.792;12.960;2022-08-14T03:28:49;96486.00;;;20.17
70435;BMP280;57876;47.792;12.960;2022-08-14T03:31:15;96482.38;;;20.15
70435;BMP280;57876;47.792;12.960;2022-08-14T03:33:46;96479.63;;;20.15
70435;BMP280;57876;47.792;12.960;2022-08-14T03:36:13;96480.94;;;20.14
70435;BMP280;57876;47.792;12.960;2022-08-14T03:38:38;96479.53;;;20.13
70435;BMP280;57876;47.792;12.960;2022-08-14T03:41:05;96480.94;;;20.14
70435;BMP280;57876;47.792;12.960;2022-08-14T03:43:30;96478.06;;;20.12
70435;BMP280;57876;47.792;12.960;2022-08-14T03:45:55;96478.06;;;20.12
70435;BMP280;57876;47.792;12.960;2022-08-14T03:48:19;96475.91;;;20.10
70435;BMP280;57876;47.792;12.960;2022-08-14T03:50:48;96477.22;;;20.09
70435;BMP280;57876;47.792;12.960;2022-08-14T03:53:15;96479.84;;;20.07
70435;BMP280;57876;47.792;12.960;2022-08-14T03:55:40;96482.59;;;20.07
70435;BMP280;57876;47.792;12.960;2022-08-14T03:58:06;96478.41;;;20.06
70435;BMP280;57876;47.792;12.960;2022-08-14T04:00:31;96476.97;;;20.05
70435;BMP280;57876;47.792;12.960;2022-08-14T04:02:55;96476.38;;;20.07
70435;BMP280;57876;47.792;12.960;2022-08-14T04:05:20;96479.13;;;20.07
70435;BMP280;57876;47.792;12.960;2022-08-14T04:07:44;96464.56;;;20.05
70435;BMP280;57876;47.792;12.960;2022-08-14T04:10:10;96457.63;;;20.04
70435;BMP280;57876;47.792;12.960;2022-08-14T04:12:34;96470.75;;;20.05
70435;BMP280;57876;47.792;12.960;2022-08-14T04:14:59;96451.50;;;20.05
70435;BMP280;57876;47.792;12.960;2022-08-14T04:17:24;96462.50;;;20.05
70435;BMP280;57876;47.792;12.960;2022-08-14T04:19:49;96452.97;;;20.06
70435;BMP280;57876;47.792;12.960;2022-08-14T04:22:13;96457.75;;;20.05
70435;BMP280;57876;47.792;12.960;2022-08-14T04:24:39;96450.84;;;20.05
70435;BMP280;57876;47.792;12.960;2022-08-14T04:27:03;96452.25;;;20.05
70435;BMP280;57876;47.792;12.960;2022-08-14T04:29:28;96448.09;;;20.05
70435;BMP280;57876;47.792;12.960;2022-08-14T04:31:52;96444.63;;;20.04
70435;BMP280;57876;47.792;12.960;2022-08-14T04:34:16;96452.84;;;20.04
70435;BMP280;57876;47.792;12.960;2022-08-14T04:36:41;96454.88;;;20.04
70435;BMP280;57876;47.792;12.960;2022-08-14T04:39:24;96452.00;;;20.02
70435;BMP280;57876;47.792;12.960;2022-08-14T04:42:07;96456.09;;;20.01
70435;BMP280;57876;47.792;12.960;2022-08-14T04:44:50;96457.50;;;20.02
70435;BMP280;57876;47.792;12.960;2022-08-14T04:47:15;96453.34;;;20.01
70435;BMP280;57876;47.792;12.960;2022-08-14T04:50:01;96460.13;;;20.00
70435;BMP280;57876;47.792;12.960;2022-08-14T04:52:26;96450.59;;;20.01
70435;BMP280;57876;47.792;12.960;2022-08-14T04:54:51;96460.25;;;20.02
70435;BMP280;57876;47.792;12.960;2022-08-14T04:57:15;96456.78;;;20.01
70435;BMP280;57876;47.792;12.960;2022-08-14T04:59:40;96456.09;;;20.01
70435;BMP280;57876;47.792;12.960;2022-08-14T05:02:04;96449.97;;;20.02
70435;BMP280;57876;47.792;12.960;2022-08-14T05:04:29;96456.19;;;20.03
70435;BMP280;57876;47.792;12.960;2022-08-14T05:06:53;96449.41;;;20.04
70435;BMP280;57876;47.792;12.960;2022-08-14T05:09:18;96443.91;;;20.04
70435;BMP280;57876;47.792;12.960;2022-08-14T05:11:42;96435.66;;;20.04
70435;BMP280;57876;47.792;12.960;2022-08-14T05:14:06;96444.00;;;20.05
70435;BMP280;57876;47.792;12.960;2022-08-14T05:16:31;96434.47;;;20.06
70435;BMP280;57876;47.792;12.960;2022-08-14T05:18:56;96440.66;;;20.07
70435;BMP280;57876;47.792;12.960;2022-08-14T05:21:20;96427.66;;;20.07
70435;BMP280;57876;47.792;12.960;2022-08-14T05:23:45;96443.41;;;20.07
70435;BMP280;57876;47.792;12.960;2022-08-14T05:26:09;96434.59;;;20.08
70435;BMP280;57876;47.792;12.960;2022-08-14T05:28:40;96435.91;;;20.07
70435;BMP280;57876;47.792;12.960;2022-08-14T05:31:11;96431.84;;;20.08
70435;BMP280;57876;47.792;12.960;2022-08-14T05:33:36;96430.53;;;20.09
70435;BMP280;57876;47.792;12.960;2022-08-14T05:36:05;96429.22;;;20.10
70435;BMP280;57876;47.792;12.960;2022-08-14T05:38:32;96422.41;;;20.11
70435;BMP280;57876;47.792;12.960;2022-08-14T05:40:57;96419.78;;;20.13
70435;BMP280;57876;47.792;12.960;2022-08-14T05:43:22;96421.84;;;20.13
70435;BMP280;57876;47.792;12.960;2022-08-14T05:45:47;96415.00;;;20.14
70435;BMP280;57876;47.792;12.960;2022-08-14T05:48:13;96414.28;;;20.13
70435;BMP280;57876;47.792;12.960;2022-08-14T05:50:39;96415.72;;;20.14
70435;BMP280;57876;47.792;12.960;2022-08-14T05:53:04;96410.22;;;20.14
70435;BMP280;57876;47.792;12.960;2022-08-14T05:55:28;96411.69;;;20.15
70435;BMP280;57876;47.792;12.960;2022-08-14T05:57:53;96415.16;;;20.16
70435;BMP280;57876;47.792;12.960;2022-08-14T06:00:20;96406.34;;;20.17
70435;BMP280;57876;47.792;12.960;2022-08-14T06:02:44;96402.84;;;20.17
70435;BMP280;57876;47.792;12.960;2022-08-14T06:05:09;96405.00;;;20.18
70435;BMP280;57876;47.792;12.960;2022-08-14T06:07:37;96396.75;;;20.18
70435;BMP280;57876;47.792;12.960;2022-08-14T06:10:04;96391.25;;;20.18
70435;BMP280;57876;47.792;12.960;2022-08-14T06:12:29;96390.66;;;20.20
70435;BMP280;57876;47.792;12.960;2022-08-14T06:14:53;96390.09;;;20.21
70435;BMP280;57876;47.792;12.960;2022-08-14T06:17:17;96390.75;;;20.22
70435;BMP280;57876;47.792;12.960;2022-08-14T06:19:42;96393.66;;;20.24
70435;BMP280;57876;47.792;12.960;2022-08-14T06:22:06;96388.88;;;20.24
70435;BMP280;57876;47.792;12.960;2022-08-14T06:24:30;96382.69;;;20.24
70435;BMP280;57876;47.792;12.960;2022-08-14T06:26:55;96384.13;;;20.25
70435;BMP280;57876;47.792;12.960;2022-08-14T06:29:19;96383.50;;;20.26
70435;BMP280;57876;47.792;12.960;2022-08-14T06:31:44;96378.72;;;20.27
70435;BMP280;57876;47.792;12.960;2022-08-14T06:34:08;96371.19;;;20.27
70435;BMP280;57876;47.792;12.960;2022-08-14T06:36:32;96369.88;;;20.28
70435;BMP280;57876;47.792;12.960;2022-08-14T06:38:58;96364.38;;;20.28
70435;BMP280;57876;47.792;12.960;2022-08-14T06:41:22;96365.13;;;20.29
70435;BMP280;57876;47.792;12.960;2022-08-14T06:43:47;96367.28;;;20.30
70435;BMP280;57876;47.792;12.960;2022-08-14T06:46:11;96353.53;;;20.30
70435;BMP280;57876;47.792;12.960;2022-08-14T06:48:36;96357.72;;;20.31
70435;BMP280;57876;47.792;12.960;2022-08-14T06:51:00;96363.91;;;20.32
70435;BMP280;57876;47.792;12.960;2022-08-14T06:53:25;96359.16;;;20.32
70435;BMP280;57876;47.792;12.960;2022-08-14T06:55:50;96346.13;;;20.33
70435;BMP280;57876;47.792;12.960;2022-08-14T06:58:16;96355.78;;;20.34
70435;BMP280;57876;47.792;12.960;2022-08-14T07:00:43;96362.00;;;20.34
70435;BMP280;57876;47.792;12.960;2022-08-14T07:03:28;96357.22;;;20.35
70435;BMP280;57876;47.792;12.960;2022-08-14T07:06:12;96363.44;;;20.35
70435;BMP280;57876;47.792;12.960;2022-08-14T07:08:37;96355.19;;;20.35
70435;BMP280;57876;47.792;12.960;2022-08-14T07:11:01;96364.16;;;20.36
70435;BMP280;57876;47.792;12.960;2022-08-14T07:13:27;96361.41;;;20.36
70435;BMP280;57876;47.792;12.960;2022-08-14T07:15:53;96359.38;;;20.36
70435;BMP280;57876;47.792;12.960;2022-08-14T07:18:20;96365.59;;;20.37
70435;BMP280;57876;47.792;12.960;2022-08-14T07:20:44;96363.56;;;20.37
70435;BMP280;57876;47.792;12.960;2022-08-14T07:23:09;96361.56;;;20.38
70435;BMP280;57876;47.792;12.960;2022-08-14T07:25:35;96354.00;;;20.38
70435;BMP280;57876;47.792;12.960;2022-08-14T07:28:08;96362.97;;;20.39
70435;BMP280;57876;47.792;12.960;2022-08-14T07:30:32;96362.22;;;20.38
70435;BMP280;57876;47.792;12.960;2022-08-14T07:32:57;96376.72;;;20.39
70435;BMP280;57876;47.792;12.960;2022-08-14T07:35:21;96379.59;;;20.41
70435;BMP280;57876;47.792;12.960;2022-08-14T07:37:47;96370.59;;;20.40
70435;BMP280;57876;47.792;12.960;2022-08-14T07:40:12;96373.25;;;20.50
70435;BMP280;57876;47.792;12.960;2022-08-14T07:42:36;96365.81;;;20.52
70435;BMP280;57876;47.792;12.960;2022-08-14T07:45:00;96368.31;;;20.60
70435;BMP280;57876;47.792;12.960;2022-08-14T07:47:25;96370.59;;;20.63
70435;BMP280;57876;47.792;12.960;2022-08-14T07:50:10;96362.34;;;20.63
70435;BMP280;57876;47.792;12.960;2022-08-14T07:52:37;96364.50;;;20.65
70435;BMP280;57876;47.792;12.960;2022-08-14T07:55:01;96363.28;;;20.68
70435;BMP280;57876;47.792;12.960;2022-08-14T07:57:26;96355.66;;;20.66
70435;BMP280;57876;47.792;12.960;2022-08-14T07:59:51;96352.03;;;20.75
70435;BMP280;57876;47.792;12.960;2022-08-14T08:02:16;96358.16;;;20.73
70435;BMP280;57876;47.792;12.960;2022-08-14T08:04:44;96350.50;;;20.72
70435;BMP280;57876;47.792;12.960;2022-08-14T08:07:09;96349.06;;;20.71
70435;BMP280;57876;47.792;12.960;2022-08-14T08:09:35;96351.78;;;20.82
70435;BMP280;57876;47.792;12.960;2022-08-14T08:12:02;96336.50;;;20.79
70435;BMP280;57876;47.792;12.960;2022-08-14T08:14:26;96350.97;;;20.80
70435;BMP280;57876;47.792;12.960;2022-08-14T08:16:51;96346.06;;;20.78
70435;BMP280;57876;47.792;12.960;2022-08-14T08:19:15;96340.56;;;20.78
70435;BMP280;57876;47.792;12.960;2022-08-14T08:21:42;96335.19;;;20.80
70435;BMP280;57876;47.792;12.960;2022-08-14T08:24:06;96333.16;;;20.81
70435;BMP280;57876;47.792;12.960;2022-08-14T08:26:31;96331.84;;;20.82
70435;BMP280;57876;47.792;12.960;2022-08-14T08:28:56;96332.69;;;20.84
70435;BMP280;57876;47.792;12.960;2022-08-14T08:31:21;96328.63;;;20.85
70435;BMP280;57876;47.792;12.960;2022-08-14T08:33:50;96319.97;;;20.91
70435;BMP280;57876;47.792;12.960;2022-08-14T08:36:15;96321.03;;;20.97
70435;BMP280;57876;47.792;12.960;2022-08-14T08:38:39;96322.47;;;20.98
70435;BMP280;57876;47.792;12.960;2022-08-14T08:41:04;96319.47;;;20.94
70435;BMP280;57876;47.792;12.960;2022-08-14T08:43:34;96332.78;;;20.86
70435;BMP280;57876;47.792;12.960;2022-08-14T08:48:41;96316.53;;;20.79
70435;BMP280;57876;47.792;12.960;2022-08-14T08:51:06;96323.25;;;20.76
70435;BMP280;57876;47.792;12.960;2022-08-14T08:53:33;96319.78;;;20.75
70435;BMP280;57876;47.792;12.960;2022-08-14T08:55:58;96321.09;;;20.74
70435;BMP280;57876;47.792;12.960;2022-08-14T08:58:23;96312.00;;;20.72
70435;BMP280;57876;47.792;12.960;2022-08-14T09:00:51;96311.31;;;20.72
70435;BMP280;57876;47.792;12.960;2022-08-14T09:03:19;96300.03;;;20.79
70435;BMP280;57876;47.792;12.960;2022-08-14T09:05:57;96302.66;;;20.88
70435;BMP280;57876;47.792;12.960;2022-08-14T09:08:24;96293.56;;;20.86
70435;BMP280;57876;47.792;12.960;2022-08-14T09:10:49;96298.84;;;20.82
70435;BMP280;57876;47.792;12.960;2022-08-14T09:13:14;96302.19;;;20.80
70435;BMP280;57876;47.792;12.960;2022-08-14T09:15:40;96290.38;;;20.78
70435;BMP280;57876;47.792;12.960;2022-08-14T09:18:06;96284.03;;;20.75
70435;BMP280;57876;47.792;12.960;2022-08-14T09:20:31;96294.28;;;20.75
70435;BMP280;57876;47.792;12.960;2022-08-14T09:22:58;96295.63;;;20.74
70435;BMP280;57876;47.792;12.960;2022-08-14T09:25:22;96295.50;;;20.72
70435;BMP280;57876;47.792;12.960;2022-08-14T09:27:47;96279.03;;;20.72
70435;BMP280;57876;47.792;12.960;2022-08-14T09:30:11;96284.41;;;20.70
70435;BMP280;57876;47.792;12.960;2022-08-14T09:32:51;96278.22;;;20.70
70435;BMP280;57876;47.792;12.960;2022-08-14T09:46:21;96262.22;;;20.66
70435;BMP280;57876;47.792;12.960;2022-08-14T09:48:56;96263.53;;;20.65
70435;BMP280;57876;47.792;12.960;2022-08-14T09:51:22;96265.53;;;20.65
70435;BMP280;57876;47.792;12.960;2022-08-14T09:53:59;96271.75;;;20.65
70435;BMP280;57876;47.792;12.960;2022-08-14T09:56:23;96257.28;;;20.65
70435;BMP280;57876;47.792;12.960;2022-08-14T09:58:48;96254.41;;;20.63
70435;BMP280;57876;47.792;12.960;2022-08-14T10:01:17;96250.34;;;20.64
70435;BMP280;57876;47.792;12.960;2022-08-14T10:03:53;96244.16;;;20.63
70435;BMP280;57876;47.792;12.960;2022-08-14T10:06:23;96244.16;;;20.63
70435;BMP280;57876;47.792;12.960;2022-08-14T10:11:22;96235.91;;;20.63
70435;BMP280;57876;47.792;12.960;2022-08-14T10:13:52;96226.25;;;20.62
70435;BMP280;57876;47.792;12.960;2022-08-14T10:16:17;96217.28;;;20.62
70435;BMP280;57876;47.792;12.960;2022-08-14T10:18:42;96224.19;;;20.63
70435;BMP280;57876;47.792;12.960;2022-08-14T10:21:09;96221.44;;;20.63
70435;BMP280;57876;47.792;12.960;2022-08-14T10:23:48;96215.94;;;20.63
70435;BMP280;57876;47.792;12.960;2022-08-14T10:26:17;96208.34;;;20.61
70435;BMP280;57876;47.792;12.960;2022-08-14T10:28:45;96211.06;;;20.61
70435;BMP280;57876;47.792;12.960;2022-08-14T10:31:25;96200.78;;;20.62
70435;BMP280;57876;47.792;12.960;2022-08-14T10:34:11;96208.34;;;20.61
70435;BMP280;57876;47.792;12.960;2022-08-14T10:36:43;96201.38;;;20.60
70435;BMP280;57876;47.792;12.960;2022-08-14T10:39:16;96201.38;;;20.60
70435;BMP280;57876;47.792;12.960;2022-08-14T10:41:42;96199.34;;;20.61
70435;BMP280;57876;47.792;12.960;2022-08-14T10:46:42;96198.63;;;20.60
70435;BMP280;57876;47.792;12.960;2022-08-14T10:49:16;96195.88;;;20.60
70435;BMP280;57876;47.792;12.960;2022-08-14T10:51:41;96190.38;;;20.60
70435;BMP280;57876;47.792;12.960;2022-08-14T10:54:08;96180.69;;;20.59
70435;BMP280;57876;47.792;12.960;2022-08-14T10:56:33;96185.50;;;20.59
70435;BMP280;57876;47.792;12.960;2022-08-14T10:59:06;96185.63;;;20.61
70435;BMP280;57876;47.792;12.960;2022-08-14T11:01:33;96178.69;;;20.60
70435;BMP280;57876;47.792;12.960;2022-08-14T11:03:58;96181.44;;;20.60
70435;BMP280;57876;47.792;12.960;2022-08-14T11:06:24;96183.59;;;20.61
70435;BMP280;57876;47.792;12.960;2022-08-14T11:08:48;96177.94;;;20.59
70435;BMP280;57876;47.792;12.960;2022-08-14T11:11:13;96172.44;;;20.59
70435;BMP280;57876;47.792;12.960;2022-08-14T11:13:41;96163.50;;;20.59
70435;BMP280;57876;47.792;12.960;2022-08-14T11:16:09;96175.19;;;20.59
70435;BMP280;57876;47.792;12.960;2022-08-14T11:18:35;96173.88;;;20.60
70435;BMP280;57876;47.792;12.960;2022-08-14T11:21:00;96181.44;;;20.60
70435;BMP280;57876;47.792;12.960;2022-08-14T11:23:27;96182.00;;;20.58
70435;BMP280;57876;47.792;12.960;2022-08-14T11:25:52;96173.88;;;20.60
70435;BMP280;57876;47.792;12.960;2022-08-14T11:28:22;96173.19;;;20.60
70435;BMP280;57876;47.792;12.960;2022-08-14T11:30:48;96164.22;;;20.59
70435;BMP280;57876;47.792;12.960;2022-08-14T11:33:13;96171.00;;;20.58
70435;BMP280;57876;47.792;12.960;2022-08-14T11:35:38;96167.59;;;20.58
70435;BMP280;57876;47.792;12.960;2022-08-14T11:38:05;96166.25;;;20.59
70435;BMP280;57876;47.792;12.960;2022-08-14T11:40:32;96163.41;;;20.57
70435;BMP280;57876;47.792;12.960;2022-08-14T11:42:58;96155.88;;;20.57
70435;BMP280;57876;47.792;12.960;2022-08-14T11:45:27;96153.84;;;20.58
70435;BMP280;57876;47.792;12.960;2022-08-14T11:47:56;96151.78;;;20.58
70435;BMP280;57876;47.792;12.960;2022-08-14T11:50:27;96145.59;;;20.58
70435;BMP280;57876;47.792;12.960;2022-08-14T11:52:53;96140.78;;;20.58
70435;BMP280;57876;47.792;12.960;2022-08-14T11:55:20;96143.44;;;20.56
70435;BMP280;57876;47.792;12.960;2022-08-14T11:57:45;96131.88;;;20.58
70435;BMP280;57876;47.792;12.960;2022-08-14T12:00:15;96130.44;;;20.57
70435;BMP280;57876;47.792;12.960;2022-08-14T12:02:52;96118.78;;;20.58
70435;BMP280;57876;47.792;12.960;2022-08-14T12:05:36;96122.88;;;20.57
70435;BMP280;57876;47.792;12.960;2022-08-14T12:08:06;96118.72;;;20.56
70435;BMP280;57876;47.792;12.960;2022-08-14T12:10:30;96122.88;;;20.57
70435;BMP280;57876;47.792;12.960;2022-08-14T12:12:56;96113.22;;;20.56
70435;BMP280;57876;47.792;12.960;2022-08-14T12:15:31;96113.94;;;20.57
70435;BMP280;57876;47.792;12.960;2022-08-14T12:17:55;96107.00;;;20.56
70435;BMP280;57876;47.792;12.960;2022-08-14T12:20:28;96107.72;;;20.56
70435;BMP280;57876;47.792;12.960;2022-08-14T12:22:52;96107.72;;;20.56
70435;BMP280;57876;47.792;12.960;2022-08-14T12:25:21;96102.22;;;20.56
70435;BMP280;57876;47.792;12.960;2022-08-14T12:27:48;96092.66;;;20.57
70435;BMP280;57876;47.792;12.960;2022-08-14T12:30:13;96098.25;;;20.59
70435;BMP280;57876;47.792;12.960;2022-08-14T12:32:43;96098.25;;;20.59
70435;BMP280;57876;47.792;12.960;2022-08-14T12:35:10;96090.16;;;20.61
70435;BMP280;57876;47.792;12.960;2022-08-14T12:37:35;96093.47;;;20.60
70435;BMP280;57876;47.792;12.960;2022-08-14T12:40:13;96090.16;;;20.61
70435;BMP280;57876;47.792;12.960;2022-08-14T12:42:39;96091.44;;;20.60
70435;BMP280;57876;47.792;12.960;2022-08-14T12:45:04;96090.72;;;20.60
70435;BMP280;57876;47.792;12.960;2022-08-14T12:47:29;96086.66;;;20.61
70435;BMP280;57876;47.792;12.960;2022-08-14T12:49:54;96088.84;;;20.62
70435;BMP280;57876;47.792;12.960;2022-08-14T12:52:36;96091.59;;;20.62
70435;BMP280;57876;47.792;12.960;2022-08-14T12:55:08;96088.19;;;20.64
70435;BMP280;57876;47.792;12.960;2022-08-14T12:57:39;96085.34;;;20.62
70435;BMP280;57876;47.792;12.960;2022-08-14T13:02:37;96069.81;;;20.66
70435;BMP280;57876;47.792;12.960;2022-08-14T13:05:02;96075.00;;;20.73
70435;BMP280;57876;47.792;12.960;2022-08-14T13:07:28;96055.28;;;20.77
70435;BMP280;57876;47.792;12.960;2022-08-14T13:09:55;96049.25;;;20.80
70435;BMP280;57876;47.792;12.960;2022-08-14T13:12:23;96050.69;;;20.81
70435;BMP280;57876;47.792;12.960;2022-08-14T13:14:56;96050.06;;;20.83
70435;BMP280;57876;47.792;12.960;2022-08-14T13:17:25;96046.81;;;20.86
70435;BMP280;57876;47.792;12.960;2022-08-14T13:19:55;96045.59;;;20.89
70435;BMP280;57876;47.792;12.960;2022-08-14T13:22:22;96031.38;;;20.93
70435;BMP280;57876;47.792;12.960;2022-08-14T13:24:52;96030.84;;;20.96
70435;BMP280;57876;47.792;12.960;2022-08-14T13:27:20;96027.28;;;20.94
70435;BMP280;57876;47.792;12.960;2022-08-14T13:29:46;96019.72;;;20.94
70435;BMP280;57876;47.792;12.960;2022-08-14T13:32:11;96021.88;;;20.96
70435;BMP280;57876;47.792;12.960;2022-08-14T13:34:36;96025.44;;;20.98
70435;BMP280;57876;47.792;12.960;2022-08-14T13:37:01;96016.28;;;20.94
70435;BMP280;57876;47.792;12.960;2022-08-14T13:39:28;96015.44;;;20.91
70435;BMP280;57876;47.792;12.960;2022-08-14T13:41:52;96011.78;;;20.87
70435;BMP280;57876;47.792;12.960;2022-08-14T13:44:17;96004.75;;;20.84
70435;BMP280;57876;47.792;12.960;2022-08-14T13:46:46;96003.31;;;20.83
70435;BMP280;57876;47.792;12.960;2022-08-14T13:49:12;96002.50;;;20.80
70435;BMP280;57876;47.792;12.960;2022-08-14T13:51:42;95992.13;;;20.79
70435;BMP280;57876;47.792;12.960;2022-08-14T13:54:09;95997.53;;;20.77
70435;BMP280;57876;47.792;12.960;2022-08-14T13:56:39;95999.56;;;20.76
70435;BMP280;57876;47.792;12.960;2022-08-14T13:59:04;95994.34;;;20.82
70435;BMP280;57876;47.792;12.960;2022-08-14T14:01:31;95993.06;;;20.83
70435;BMP280;57876;47.792;12.960;2022-08-14T14:03:58;95994.34;;;20.82
70435;BMP280;57876;47.792;12.960;2022-08-14T14:06:23;95986.63;;;20.79
70435;BMP280;57876;47.792;12.960;2022-08-14T14:08:53;95981.84;;;20.79
70435;BMP280;57876;47.792;12.960;2022-08-14T14:11:18;95981.03;;;20.77
70435;BMP280;57876;47.792;12.960;2022-08-14T14:13:47;95977.56;;;20.76
70435;BMP280;57876;47.792;12.960;2022-08-14T14:16:13;95987.88;;;20.76